sensor_id;sensor_type;location;lat;lon;timestamp;P1;durP1;ratioP1;P2;durP2;ratioP2
28802;SDS011;15949;55.656;37.422;2024-01-07T00:01:45;17.52;;;6.70;;
28802;SDS011;15949;55.656;37.422;2024-01-07T00:06:53;14.93;;;6.50;;
28802;SDS011;15949;55.656;37.422;2024-01-07T00:11:59;17.90;;;6.75;;
28802;SDS011;15949;55.656;37.422;2024-01-07T00:17:04;14.95;;;5.45;;
28802;SDS011;15949;55.656;37.422;2024-01-07T00:22:10;12.95;;;5.85;;
28802;SDS011;15949;55.656;37.422;2024-01-07T00:27:16;18.35;;;5.55;;
28802;SDS011;15949;55.656;37.422;2024-01-07T00:32:21;19.65;;;6.32;;
28802;SDS011;15949;55.656;37.422;2024-01-07T00:37:27;18.25;;;5.55;;
28802;SDS011;15949;55.656;37.422;2024-01-07T00:42:33;16.35;;;6.25;;
28802;SDS011;15949;55.656;37.422;2024-01-07T00:47:39;15.75;;;3.83;;
28802;SDS011;15949;55.656;37.422;2024-01-07T00:52:45;17.23;;;5.82;;
28802;SDS011;15949;55.656;37.422;2024-01-07T00:57:51;15.35;;;5.50;;
28802;SDS011;15949;55.656;37.422;2024-01-07T01:02:57;20.20;;;6.53;;
28802;SDS011;15949;55.656;37.422;2024-01-07T01:08:03;15.27;;;6.10;;
28802;SDS011;15949;55.656;37.422;2024-01-07T01:13:09;15.35;;;5.57;;
28802;SDS011;15949;55.656;37.422;2024-01-07T01:18:15;18.15;;;6.07;;
28802;SDS011;15949;55.656;37.422;2024-01-07T01:23:21;16.20;;;5.65;;
28802;SDS011;15949;55.656;37.422;2024-01-07T01:28:27;11.73;;;5.25;;
28802;SDS011;15949;55.656;37.422;2024-01-07T01:33:32;10.20;;;3.45;;
28802;SDS011;15949;55.656;37.422;2024-01-07T01:38:38;13.63;;;4.82;;
28802;SDS011;15949;55.656;37.422;2024-01-07T01:43:44;16.73;;;5.05;;
28802;SDS011;15949;55.656;37.422;2024-01-07T01:48:50;10.90;;;4.43;;
28802;SDS011;15949;55.656;37.422;2024-01-07T01:53:56;12.35;;;5.10;;
28802;SDS011;15949;55.656;37.422;2024-01-07T01:59:03;11.88;;;5.05;;
28802;SDS011;15949;55.656;37.422;2024-01-07T02:04:09;7.95;;;3.72;;
28802;SDS011;15949;55.656;37.422;2024-01-07T02:09:15;10.60;;;4.20;;
28802;SDS011;15949;55.656;37.422;2024-01-07T02:14:21;10.82;;;3.75;;
28802;SDS011;15949;55.656;37.422;2024-01-07T02:19:27;19.45;;;5.60;;
28802;SDS011;15949;55.656;37.422;2024-01-07T02:24:33;12.88;;;4.88;;
28802;SDS011;15949;55.656;37.422;2024-01-07T02:29:39;14.32;;;5.13;;
28802;SDS011;15949;55.656;37.422;2024-01-07T02:34:44;9.88;;;4.22;;
28802;SDS011;15949;55.656;37.422;2024-01-07T02:39:52;9.70;;;3.70;;
28802;SDS011;15949;55.656;37.422;2024-01-07T02:44:58;17.10;;;4.57;;
28802;SDS011;15949;55.656;37.422;2024-01-07T02:50:03;14.82;;;4.60;;
28802;SDS011;15949;55.656;37.422;2024-01-07T02:55:09;18.13;;;4.95;;
28802;SDS011;15949;55.656;37.422;2024-01-07T03:00:15;11.00;;;4.35;;
28802;SDS011;15949;55.656;37.422;2024-01-07T03:05:21;19.13;;;4.47;;
28802;SDS011;15949;55.656;37.422;2024-01-07T03:10:27;13.70;;;4.72;;
28802;SDS011;15949;55.656;37.422;2024-01-07T03:15:33;12.45;;;4.63;;
28802;SDS011;15949;55.656;37.422;2024-01-07T03:20:38;12.60;;;4.38;;
28802;SDS011;15949;55.656;37.422;2024-01-07T03:25:44;12.20;;;4.78;;
28802;SDS011;15949;55.656;37.422;2024-01-07T03:30:50;11.13;;;4.90;;
28802;SDS011;15949;55.656;37.422;2024-01-07T03:35:56;13.25;;;4.05;;
28802;SDS011;15949;55.656;37.422;2024-01-07T03:41:02;13.48;;;4.88;;
28802;SDS011;15949;55.656;37.422;2024-01-07T03:46:08;17.20;;;5.82;;
28802;SDS011;15949;55.656;37.422;2024-01-07T03:51:13;9.70;;;3.55;;
28802;SDS011;15949;55.656;37.422;2024-01-07T03:56:19;11.85;;;4.45;;
28802;SDS011;15949;55.656;37.422;2024-01-07T04:01:25;8.07;;;3.35;;
28802;SDS011;15949;55.656;37.422;2024-01-07T04:06:31;10.93;;;4.70;;
28802;SDS011;15949;55.656;37.422;2024-01-07T04:11:40;12.82;;;4.35;;
28802;SDS011;15949;55.656;37.422;2024-01-07T04:16:49;13.38;;;4.75;;
28802;SDS011;15949;55.656;37.422;2024-01-07T04:21:55;13.65;;;5.30;;
28802;SDS011;15949;55.656;37.422;2024-01-07T04:27:00;13.80;;;5.40;;
28802;SDS011;15949;55.656;37.422;2024-01-07T04:32:06;7.35;;;3.17;;
28802;SDS011;15949;55.656;37.422;2024-01-07T04:37:12;9.77;;;4.22;;
28802;SDS011;15949;55.656;37.422;2024-01-07T04:42:17;13.40;;;4.63;;
28802;SDS011;15949;55.656;37.422;2024-01-07T04:47:27;14.57;;;4.38;;
28802;SDS011;15949;55.656;37.422;2024-01-07T04:52:34;6.32;;;3.08;;
28802;SDS011;15949;55.656;37.422;2024-01-07T04:57:40;10.95;;;3.70;;
28802;SDS011;15949;55.656;37.422;2024-01-07T05:02:45;10.07;;;3.85;;
28802;SDS011;15949;55.656;37.422;2024-01-07T05:07:51;14.57;;;4.55;;
28802;SDS011;15949;55.656;37.422;2024-01-07T05:12:57;11.02;;;3.33;;
28802;SDS011;15949;55.656;37.422;2024-01-07T05:18:06;9.98;;;3.38;;
28802;SDS011;15949;55.656;37.422;2024-01-07T05:23:14;14.48;;;5.18;;
28802;SDS011;15949;55.656;37.422;2024-01-07T05:28:20;10.50;;;3.25;;
28802;SDS011;15949;55.656;37.422;2024-01-07T05:33:26;15.95;;;4.25;;
28802;SDS011;15949;55.656;37.422;2024-01-07T05:38:32;12.63;;;4.65;;
28802;SDS011;15949;55.656;37.422;2024-01-07T05:43:37;12.48;;;4.75;;
28802;SDS011;15949;55.656;37.422;2024-01-07T05:48:44;12.57;;;4.90;;
28802;SDS011;15949;55.656;37.422;2024-01-07T05:58:56;11.02;;;3.75;;
28802;SDS011;15949;55.656;37.422;2024-01-07T06:04:02;12.43;;;3.67;;
28802;SDS011;15949;55.656;37.422;2024-01-07T06:09:08;15.35;;;5.00;;
28802;SDS011;15949;55.656;37.422;2024-01-07T06:14:14;17.65;;;5.18;;
28802;SDS011;15949;55.656;37.422;2024-01-07T06:19:20;13.23;;;4.97;;
28802;SDS011;15949;55.656;37.422;2024-01-07T06:24:26;16.00;;;4.38;;
28802;SDS011;15949;55.656;37.422;2024-01-07T06:29:32;19.33;;;5.25;;
28802;SDS011;15949;55.656;37.422;2024-01-07T06:34:39;14.02;;;4.55;;
28802;SDS011;15949;55.656;37.422;2024-01-07T06:39:44;10.30;;;4.40;;
28802;SDS011;15949;55.656;37.422;2024-01-07T06:44:50;11.15;;;3.95;;
28802;SDS011;15949;55.656;37.422;2024-01-07T06:49:56;6.35;;;2.92;;
28802;SDS011;15949;55.656;37.422;2024-01-07T06:55:02;12.35;;;4.28;;
28802;SDS011;15949;55.656;37.422;2024-01-07T07:00:08;11.82;;;4.32;;
28802;SDS011;15949;55.656;37.422;2024-01-07T07:05:14;13.80;;;5.45;;
28802;SDS011;15949;55.656;37.422;2024-01-07T07:10:20;12.55;;;4.68;;
28802;SDS011;15949;55.656;37.422;2024-01-07T07:15:25;10.15;;;4.30;;
28802;SDS011;15949;55.656;37.422;2024-01-07T07:25:38;11.65;;;4.30;;
28802;SDS011;15949;55.656;37.422;2024-01-07T07:30:44;15.18;;;3.92;;
28802;SDS011;15949;55.656;37.422;2024-01-07T07:35:50;14.85;;;5.05;;
28802;SDS011;15949;55.656;37.422;2024-01-07T07:40:56;4.78;;;2.40;;
28802;SDS011;15949;55.656;37.422;2024-01-07T07:46:02;13.73;;;4.10;;
28802;SDS011;15949;55.656;37.422;2024-01-07T07:51:08;7.10;;;3.50;;
28802;SDS011;15949;55.656;37.422;2024-01-07T07:56:14;9.27;;;3.88;;
28802;SDS011;15949;55.656;37.422;2024-01-07T08:01:20;11.95;;;4.28;;
28802;SDS011;15949;55.656;37.422;2024-01-07T08:06:26;14.48;;;5.20;;
28802;SDS011;15949;55.656;37.422;2024-01-07T08:11:32;10.60;;;3.70;;
28802;SDS011;15949;55.656;37.422;2024-01-07T08:16:37;11.75;;;4.03;;
28802;SDS011;15949;55.656;37.422;2024-01-07T08:21:43;11.80;;;4.30;;
28802;SDS011;15949;55.656;37.422;2024-01-07T08:26:49;10.80;;;4.32;;
28802;SDS011;15949;55.656;37.422;2024-01-07T08:31:55;14.43;;;5.07;;
28802;SDS011;15949;55.656;37.422;2024-01-07T08:37:01;14.13;;;4.90;;
28802;SDS011;15949;55.656;37.422;2024-01-07T08:42:06;8.65;;;3.65;;
28802;SDS011;15949;55.656;37.422;2024-01-07T08:47:12;16.35;;;5.18;;
28802;SDS011;15949;55.656;37.422;2024-01-07T08:52:19;13.18;;;4.40;;
28802;SDS011;15949;55.656;37.422;2024-01-07T08:57:25;4.20;;;2.55;;
28802;SDS011;15949;55.656;37.422;2024-01-07T09:02:30;16.67;;;5.63;;
28802;SDS011;15949;55.656;37.422;2024-01-07T09:07:36;13.10;;;4.25;;
28802;SDS011;15949;55.656;37.422;2024-01-07T09:12:42;11.38;;;4.65;;
28802;SDS011;15949;55.656;37.422;2024-01-07T09:17:48;16.20;;;4.90;;
28802;SDS011;15949;55.656;37.422;2024-01-07T09:22:54;14.50;;;4.97;;
28802;SDS011;15949;55.656;37.422;2024-01-07T09:27:59;6.43;;;3.35;;
28802;SDS011;15949;55.656;37.422;2024-01-07T09:33:06;11.45;;;4.68;;
28802;SDS011;15949;55.656;37.422;2024-01-07T09:38:12;18.27;;;5.90;;
28802;SDS011;15949;55.656;37.422;2024-01-07T09:43:18;17.92;;;6.10;;
28802;SDS011;15949;55.656;37.422;2024-01-07T09:48:25;17.30;;;5.70;;
28802;SDS011;15949;55.656;37.422;2024-01-07T09:53:31;12.95;;;5.43;;
28802;SDS011;15949;55.656;37.422;2024-01-07T09:58:41;14.32;;;5.40;;
28802;SDS011;15949;55.656;37.422;2024-01-07T10:03:48;12.38;;;5.70;;
28802;SDS011;15949;55.656;37.422;2024-01-07T10:08:54;12.35;;;4.97;;
28802;SDS011;15949;55.656;37.422;2024-01-07T10:14:00;18.80;;;5.90;;
28802;SDS011;15949;55.656;37.422;2024-01-07T10:19:06;11.52;;;4.88;;
28802;SDS011;15949;55.656;37.422;2024-01-07T10:24:13;13.97;;;4.93;;
28802;SDS011;15949;55.656;37.422;2024-01-07T10:29:19;15.43;;;5.15;;
28802;SDS011;15949;55.656;37.422;2024-01-07T10:34:26;15.00;;;4.50;;
28802;SDS011;15949;55.656;37.422;2024-01-07T10:39:34;18.50;;;6.47;;
28802;SDS011;15949;55.656;37.422;2024-01-07T10:44:41;17.40;;;6.22;;
28802;SDS011;15949;55.656;37.422;2024-01-07T10:49:47;13.93;;;5.70;;
28802;SDS011;15949;55.656;37.422;2024-01-07T10:54:56;18.55;;;5.95;;
28802;SDS011;15949;55.656;37.422;2024-01-07T11:00:03;15.55;;;5.68;;
28802;SDS011;15949;55.656;37.422;2024-01-07T11:10:31;17.88;;;5.75;;
28802;SDS011;15949;55.656;37.422;2024-01-07T11:20:57;18.30;;;6.78;;
28802;SDS011;15949;55.656;37.422;2024-01-07T11:26:04;19.05;;;6.53;;
28802;SDS011;15949;55.656;37.422;2024-01-07T11:31:10;19.38;;;7.03;;
28802;SDS011;15949;55.656;37.422;2024-01-07T11:36:17;12.18;;;5.00;;
28802;SDS011;15949;55.656;37.422;2024-01-07T11:41:23;19.15;;;5.35;;
28802;SDS011;15949;55.656;37.422;2024-01-07T11:51:36;17.50;;;5.75;;
28802;SDS011;15949;55.656;37.422;2024-01-07T11:56:42;16.10;;;6.10;;
28802;SDS011;15949;55.656;37.422;2024-01-07T12:01:48;13.23;;;4.90;;
28802;SDS011;15949;55.656;37.422;2024-01-07T12:06:54;15.82;;;6.45;;
28802;SDS011;15949;55.656;37.422;2024-01-07T12:12:00;17.70;;;6.13;;
28802;SDS011;15949;55.656;37.422;2024-01-07T12:17:08;14.90;;;5.80;;
28802;SDS011;15949;55.656;37.422;2024-01-07T12:22:15;14.15;;;5.82;;
28802;SDS011;15949;55.656;37.422;2024-01-07T12:27:23;17.08;;;6.47;;
28802;SDS011;15949;55.656;37.422;2024-01-07T12:32:32;20.17;;;6.30;;
28802;SDS011;15949;55.656;37.422;2024-01-07T12:37:37;15.90;;;7.15;;
28802;SDS011;15949;55.656;37.422;2024-01-07T12:42:43;18.00;;;6.30;;
28802;SDS011;15949;55.656;37.422;2024-01-07T12:47:52;17.45;;;6.40;;
28802;SDS011;15949;55.656;37.422;2024-01-07T12:53:00;12.80;;;4.93;;
28802;SDS011;15949;55.656;37.422;2024-01-07T12:58:05;14.95;;;6.05;;
28802;SDS011;15949;55.656;37.422;2024-01-07T13:03:11;17.73;;;6.63;;
28802;SDS011;15949;55.656;37.422;2024-01-07T13:08:22;15.48;;;6.70;;
28802;SDS011;15949;55.656;37.422;2024-01-07T13:13:31;22.85;;;6.32;;
28802;SDS011;15949;55.656;37.422;2024-01-07T13:18:37;17.70;;;6.30;;
28802;SDS011;15949;55.656;37.422;2024-01-07T13:23:42;17.75;;;6.35;;
28802;SDS011;15949;55.656;37.422;2024-01-07T13:28:49;14.65;;;4.82;;
28802;SDS011;15949;55.656;37.422;2024-01-07T13:33:55;12.63;;;5.40;;
28802;SDS011;15949;55.656;37.422;2024-01-07T13:39:00;13.50;;;6.00;;
28802;SDS011;15949;55.656;37.422;2024-01-07T13:44:06;13.52;;;5.40;;
28802;SDS011;15949;55.656;37.422;2024-01-07T13:49:13;15.75;;;6.30;;
28802;SDS011;15949;55.656;37.422;2024-01-07T13:54:19;18.88;;;6.72;;
28802;SDS011;15949;55.656;37.422;2024-01-07T13:59:24;15.55;;;5.93;;
28802;SDS011;15949;55.656;37.422;2024-01-07T14:04:31;20.75;;;7.13;;
28802;SDS011;15949;55.656;37.422;2024-01-07T14:09:37;18.15;;;5.45;;
28802;SDS011;15949;55.656;37.422;2024-01-07T14:14:42;17.55;;;6.50;;
28802;SDS011;15949;55.656;37.422;2024-01-07T14:19:48;20.80;;;6.45;;
28802;SDS011;15949;55.656;37.422;2024-01-07T14:24:55;20.02;;;6.95;;
28802;SDS011;15949;55.656;37.422;2024-01-07T14:30:01;19.13;;;6.95;;
28802;SDS011;15949;55.656;37.422;2024-01-07T14:35:08;18.13;;;7.43;;
28802;SDS011;15949;55.656;37.422;2024-01-07T14:40:14;18.27;;;7.07;;
28802;SDS011;15949;55.656;37.422;2024-01-07T14:45:20;16.52;;;6.22;;
28802;SDS011;15949;55.656;37.422;2024-01-07T14:50:26;18.92;;;7.72;;
28802;SDS011;15949;55.656;37.422;2024-01-07T14:55:32;19.33;;;7.20;;
28802;SDS011;15949;55.656;37.422;2024-01-07T15:00:37;18.98;;;7.30;;
28802;SDS011;15949;55.656;37.422;2024-01-07T15:05:44;19.80;;;6.37;;
28802;SDS011;15949;55.656;37.422;2024-01-07T15:10:50;16.33;;;5.75;;
28802;SDS011;15949;55.656;37.422;2024-01-07T15:15:55;23.60;;;8.10;;
28802;SDS011;15949;55.656;37.422;2024-01-07T15:21:04;15.00;;;4.72;;
28802;SDS011;15949;55.656;37.422;2024-01-07T15:26:10;21.77;;;7.18;;
28802;SDS011;15949;55.656;37.422;2024-01-07T15:31:17;19.35;;;5.45;;
28802;SDS011;15949;55.656;37.422;2024-01-07T15:36:23;17.50;;;6.32;;
28802;SDS011;15949;55.656;37.422;2024-01-07T15:41:28;27.58;;;7.88;;
28802;SDS011;15949;55.656;37.422;2024-01-07T15:46:34;16.27;;;5.38;;
28802;SDS011;15949;55.656;37.422;2024-01-07T15:51:40;16.35;;;6.03;;
28802;SDS011;15949;55.656;37.422;2024-01-07T15:56:46;22.02;;;6.70;;
28802;SDS011;15949;55.656;37.422;2024-01-07T16:01:51;23.80;;;5.88;;
28802;SDS011;15949;55.656;37.422;2024-01-07T16:06:57;24.00;;;7.65;;
28802;SDS011;15949;55.656;37.422;2024-01-07T16:12:03;17.23;;;6.53;;
28802;SDS011;15949;55.656;37.422;2024-01-07T16:17:10;25.23;;;7.90;;
28802;SDS011;15949;55.656;37.422;2024-01-07T16:22:15;20.33;;;7.37;;
28802;SDS011;15949;55.656;37.422;2024-01-07T16:27:21;24.63;;;8.13;;
28802;SDS011;15949;55.656;37.422;2024-01-07T16:32:27;22.58;;;7.97;;
28802;SDS011;15949;55.656;37.422;2024-01-07T16:37:32;18.90;;;6.07;;
28802;SDS011;15949;55.656;37.422;2024-01-07T16:42:38;22.35;;;7.68;;
28802;SDS011;15949;55.656;37.422;2024-01-07T16:47:44;17.92;;;6.78;;
28802;SDS011;15949;55.656;37.422;2024-01-07T16:52:50;25.23;;;8.32;;
28802;SDS011;15949;55.656;37.422;2024-01-07T16:57:56;21.95;;;7.28;;
28802;SDS011;15949;55.656;37.422;2024-01-07T17:03:02;20.05;;;7.20;;
28802;SDS011;15949;55.656;37.422;2024-01-07T17:08:08;28.55;;;8.43;;
28802;SDS011;15949;55.656;37.422;2024-01-07T17:13:14;15.32;;;4.82;;
28802;SDS011;15949;55.656;37.422;2024-01-07T17:18:20;28.10;;;8.75;;
28802;SDS011;15949;55.656;37.422;2024-01-07T17:23:25;15.60;;;6.97;;
28802;SDS011;15949;55.656;37.422;2024-01-07T17:28:31;19.42;;;7.43;;
28802;SDS011;15949;55.656;37.422;2024-01-07T17:33:38;24.13;;;7.20;;
28802;SDS011;15949;55.656;37.422;2024-01-07T17:38:44;17.33;;;5.90;;
28802;SDS011;15949;55.656;37.422;2024-01-07T17:43:51;18.23;;;6.70;;
28802;SDS011;15949;55.656;37.422;2024-01-07T17:48:57;17.83;;;6.40;;
28802;SDS011;15949;55.656;37.422;2024-01-07T17:54:03;17.75;;;6.35;;
28802;SDS011;15949;55.656;37.422;2024-01-07T17:59:09;24.08;;;8.27;;
28802;SDS011;15949;55.656;37.422;2024-01-07T18:04:16;20.17;;;7.63;;
28802;SDS011;15949;55.656;37.422;2024-01-07T18:09:21;15.48;;;6.18;;
28802;SDS011;15949;55.656;37.422;2024-01-07T18:14:27;16.88;;;5.45;;
28802;SDS011;15949;55.656;37.422;2024-01-07T18:19:33;20.98;;;5.80;;
28802;SDS011;15949;55.656;37.422;2024-01-07T18:24:39;14.75;;;6.65;;
28802;SDS011;15949;55.656;37.422;2024-01-07T18:29:45;23.30;;;7.20;;
28802;SDS011;15949;55.656;37.422;2024-01-07T18:34:50;23.08;;;7.57;;
28802;SDS011;15949;55.656;37.422;2024-01-07T18:39:57;21.73;;;7.17;;
28802;SDS011;15949;55.656;37.422;2024-01-07T18:45:03;18.23;;;5.95;;
28802;SDS011;15949;55.656;37.422;2024-01-07T18:50:09;10.50;;;4.72;;
28802;SDS011;15949;55.656;37.422;2024-01-07T18:55:15;18.38;;;6.05;;
28802;SDS011;15949;55.656;37.422;2024-01-07T19:05:27;19.27;;;6.22;;
28802;SDS011;15949;55.656;37.422;2024-01-07T19:10:33;13.93;;;5.00;;
28802;SDS011;15949;55.656;37.422;2024-01-07T19:15:39;24.37;;;7.67;;
28802;SDS011;15949;55.656;37.422;2024-01-07T19:20:45;15.52;;;4.90;;
28802;SDS011;15949;55.656;37.422;2024-01-07T19:25:52;17.85;;;6.35;;
28802;SDS011;15949;55.656;37.422;2024-01-07T19:30:57;29.48;;;9.35;;
28802;SDS011;15949;55.656;37.422;2024-01-07T19:36:03;17.35;;;7.15;;
28802;SDS011;15949;55.656;37.422;2024-01-07T19:41:18;19.75;;;7.57;;
28802;SDS011;15949;55.656;37.422;2024-01-07T19:46:25;26.23;;;8.57;;
28802;SDS011;15949;55.656;37.422;2024-01-07T19:51:35;20.45;;;6.85;;
28802;SDS011;15949;55.656;37.422;2024-01-07T19:56:41;26.02;;;7.90;;
28802;SDS011;15949;55.656;37.422;2024-01-07T20:01:48;29.98;;;8.45;;
28802;SDS011;15949;55.656;37.422;2024-01-07T20:06:53;20.97;;;6.30;;
28802;SDS011;15949;55.656;37.422;2024-01-07T20:12:02;21.83;;;7.00;;
28802;SDS011;15949;55.656;37.422;2024-01-07T20:17:08;29.38;;;8.10;;
28802;SDS011;15949;55.656;37.422;2024-01-07T20:22:13;16.45;;;6.38;;
28802;SDS011;15949;55.656;37.422;2024-01-07T20:27:19;24.67;;;7.22;;
28802;SDS011;15949;55.656;37.422;2024-01-07T20:32:25;19.00;;;6.55;;
28802;SDS011;15949;55.656;37.422;2024-01-07T20:37:30;15.23;;;4.43;;
28802;SDS011;15949;55.656;37.422;2024-01-07T20:42:36;21.52;;;6.88;;
28802;SDS011;15949;55.656;37.422;2024-01-07T20:47:42;25.02;;;8.70;;
28802;SDS011;15949;55.656;37.422;2024-01-07T20:52:50;22.38;;;7.18;;
28802;SDS011;15949;55.656;37.422;2024-01-07T20:57:56;17.45;;;5.60;;
28802;SDS011;15949;55.656;37.422;2024-01-07T21:03:02;28.50;;;8.38;;
28802;SDS011;15949;55.656;37.422;2024-01-07T21:08:08;22.43;;;7.00;;
28802;SDS011;15949;55.656;37.422;2024-01-07T21:13:14;20.00;;;7.60;;
28802;SDS011;15949;55.656;37.422;2024-01-07T21:18:21;20.98;;;7.00;;
28802;SDS011;15949;55.656;37.422;2024-01-07T21:23:26;18.70;;;6.57;;
28802;SDS011;15949;55.656;37.422;2024-01-07T21:28:32;26.75;;;7.57;;
28802;SDS011;15949;55.656;37.422;2024-01-07T21:33:39;29.85;;;7.40;;
28802;SDS011;15949;55.656;37.422;2024-01-07T21:38:45;13.02;;;4.55;;
28802;SDS011;15949;55.656;37.422;2024-01-07T21:43:51;24.20;;;7.63;;
28802;SDS011;15949;55.656;37.422;2024-01-07T21:48:56;26.02;;;8.25;;
28802;SDS011;15949;55.656;37.422;2024-01-07T21:54:02;24.98;;;7.93;;
28802;SDS011;15949;55.656;37.422;2024-01-07T21:59:08;31.45;;;9.07;;
28802;SDS011;15949;55.656;37.422;2024-01-07T22:04:13;22.35;;;8.35;;
28802;SDS011;15949;55.656;37.422;2024-01-07T22:09:19;27.55;;;8.52;;
28802;SDS011;15949;55.656;37.422;2024-01-07T22:14:25;37.08;;;9.68;;
28802;SDS011;15949;55.656;37.422;2024-01-07T22:19:30;26.88;;;8.50;;
28802;SDS011;15949;55.656;37.422;2024-01-07T22:24:36;30.65;;;10.40;;
28802;SDS011;15949;55.656;37.422;2024-01-07T22:29:41;23.02;;;7.60;;
28802;SDS011;15949;55.656;37.422;2024-01-07T22:34:47;26.30;;;9.30;;
28802;SDS011;15949;55.656;37.422;2024-01-07T22:39:53;26.95;;;9.00;;
28802;SDS011;15949;55.656;37.422;2024-01-07T22:44:59;24.38;;;8.65;;
28802;SDS011;15949;55.656;37.422;2024-01-07T22:50:04;35.20;;;10.60;;
28802;SDS011;15949;55.656;37.422;2024-01-07T22:55:10;20.23;;;6.63;;
28802;SDS011;15949;55.656;37.422;2024-01-07T23:00:16;33.42;;;9.85;;
28802;SDS011;15949;55.656;37.422;2024-01-07T23:05:22;27.37;;;7.40;;
28802;SDS011;15949;55.656;37.422;2024-01-07T23:10:28;32.72;;;9.70;;
28802;SDS011;15949;55.656;37.422;2024-01-07T23:15:33;32.78;;;9.75;;
28802;SDS011;15949;55.656;37.422;2024-01-07T23:20:39;22.90;;;7.90;;
28802;SDS011;15949;55.656;37.422;2024-01-07T23:25:46;34.13;;;10.18;;
28802;SDS011;15949;55.656;37.422;2024-01-07T23:30:51;30.88;;;9.77;;
28802;SDS011;15949;55.656;37.422;2024-01-07T23:35:57;27.30;;;8.27;;
28802;SDS011;15949;55.656;37.422;2024-01-07T23:41:04;21.35;;;6.90;;
28802;SDS011;15949;55.656;37.422;2024-01-07T23:46:09;31.17;;;9.30;;
28802;SDS011;15949;55.656;37.422;2024-01-07T23:51:15;31.67;;;10.55;;
28802;SDS011;15949;55.656;37.422;2024-01-07T23:56:21;29.70;;;8.82;;
